Terminal Aerodrome Forecast
Issued by NWS

Home | Current Version | Previous Version | Text Only | Print | Product List | Glossary On
Versions: 1 2 3 4 5 6 7 8 9 10 11 12 13 14 15 16 17 18 19
000
FTUS43 KAPX 050922 AAA
TAFPLN
TAF AMD
KPLN 050922Z 0509/0606 36005KT P6SM SCT050
      TEMPO 0509/0512 3SM BR
     FM051400 34007KT P6SM SCT025
     FM051900 30009KT P6SM FEW120
     FM060100 VRB03KT P6SM SCT090 SCT250=

USA.gov is the U.S. government's official web portal to all federal, state and local government web resources and services.